Lanai Information

FAA: LNY - ICAO: PHNY

Lanai (Airport) Location

State Hawaii
County Maui
City Lanai City
Lanai (Airport) is 3 miles southwest of Lanai City, HI.
Latitude 20-47-08.2000N
Longitude 156-57-05.1050W
Elevation 1,308ft

Lanai METARs

METAR PHNY 200356Z AUTO 05014KT 10SM CLR 22/18 A3007 RMK AO2 SLP164 T02170183
Altimeter 30.07"
Temperature 21.7°C (71.1°F)
Wind 50° at 14KT
Clouds Skies are clear.
Visibility 10.0mi
Time observed: 2021-10-20T03:56:00Z

Lanai (Airport) Details

Status Operational
Activation September 1946
Ownership Public
Usage Public
Chart HAWAIIAN ISLANDS
ATC on-site No
Beacon schedule N/A
Beacon color clear green

Lanai (Airport) Contacts

Owner HAWAII ST ARPTS DIV
Owner address HONOLULU INTL ARPT, HONOLULU, HI 96819
Owner phone 808-836-6432
Manager HOLLY W FLY
Manager address 1000 WESTLINE ROAD, WILDORADO, TX 79098
Manager phone 806-282-1263

Lanai Radio Frequencies

Lanai (Airport) Radio Frequencies

UNICOM N/A
Common traffic advisory frequency (CTAF) 122.9